Ellaville, GA

8:13 PM EDT on September 19, 2014 (GMT -0400)
Middle Georgia Regional | Change Station
CLOSE
Current Station
Airport
Location: Macon,
Elevation: 361 ft
Nearby Weather Stations

Elev 361 ft 32.68 °N, 83.65 °W | Updated 20 minutes ago

Clear
Clear
74 °F
Feels Like 74 °F
N
8
Wind Variable Wind from NE

Today
High -- | Low -- °F
--% Chance of Precip.
Yesterday
High -- | Low -- °F
Precip. -- in
7:22 AM 7:36 PM
Waning Crescent, 16% visible
Pressure 30.03 in
Visibility 10.0 miles
Clouds Clear
Dew Point 67 °F
Humidity 79%
Rainfall 0.00 in
Snow Depth Not available.
UV 0 out of 12
Pollen 8.40 out of 12
Air Quality Not available.
Flu Activity Not available.
METAR KMCN 192353Z 05007KT 10SM CLR 23/19 A3004 RMK AO2 SLP169 T02330194 10300 20233 52010

More Conditions Fewer Conditions

Pressure 30.03 in
Visibility 10.0 miles
Clouds Clear
Dew Point 67 °F
Humidity 79%
Rainfall 0.00 in
Snow Depth Not available.
UV 0 out of 12
Pollen 8.40 out of 12
Air Quality Not available.
Flu Activity Not available.
METAR KMCN 192353Z 05007KT 10SM CLR 23/19 A3004 RMK AO2 SLP169 T02330194 10300 20233 52010

More Conditions Fewer Conditions

10-Day Weather Forecast

Almanac

Astronomy

Sep. 19, 2014 Rise Set
Actual Time 7:22 AM EDT 7:36 PM EDT
Civil Twilight 6:58 AM EDT 8:01 PM EDT
Nautical Twilight 6:29 AM EDT 8:30 PM EDT
Astronomical Twilight 6:00 AM EDT 8:58 PM EDT
Moon 3:18 AM EDT (9/19) 4:54 PM EDT (9/19)
Length of Visible Light 13h 03m
Length of Day
12h 14m
Tomorrow will be 1m 58s shorter.
Waning Crescent, 16% of the Moon is Illuminated
Today
Waning Crescent
Sep 24
New
Oct 1
First Quarter
Oct 8
Full
Oct 15
Last Quarter

Today's Extremes

State Highs State Lows

Community

WunderPhotos

Upload Photos

1,754,734 photos uploaded!

WunderBlogs® & News

Nearby

Snow Depth

Station Depth Elevation
No new snow has been reported.

Earthquake Activity

City Distance Mag. Time & Date
No recent earthquake activity has been reported nearby.
Minimum magnitude displayed is 2.5.

Coastal Water Temperatures

Place Temperature
No Stations Reporting

Nearby Weather Stations